Time;durP1;ratioP1;P1;durP2;ratioP2;P2;SDS_P1;SDS_P2;PMS_P1;PMS_P2;Temp;Humidity;BMP_temperature;BMP_pressure;BME280_temperature;BME280_humidity;BME280_pressure;Samples;Min_cycle;Max_cycle;Signal;HPM_P1;HPM_P2
2023/09/24 00:01:24;;;;;;;15.65;6.30;;;;;;;21.42;58.05;94692.00;5099913;28;20206;-65
2023/09/24 00:03:52;;;;;;;12.23;5.22;;;;;;;21.45;58.38;94686.31;5100629;28;20199;-65
2023/09/24 00:06:22;;;;;;;15.00;5.60;;;;;;;21.43;58.18;94682.38;5100610;28;20202;-65
2023/09/24 00:08:50;;;;;;;11.40;5.13;;;;;;;21.38;58.60;94687.25;5117973;28;20696;-65
2023/09/24 00:11:22;;;;;;;15.13;5.22;;;;;;;21.35;58.80;94690.94;5117652;28;20203;-65
2023/09/24 00:13:49;;;;;;;13.30;5.60;;;;;;;21.34;59.05;94689.34;5117666;28;20225;-65
2023/09/24 00:16:19;;;;;;;14.80;6.10;;;;;;;21.31;58.93;94680.97;5100243;28;20200;-65
2023/09/24 00:18:47;;;;;;;14.18;5.53;;;;;;;21.23;59.09;94688.75;5082886;28;20260;-65
2023/09/24 00:21:17;;;;;;;16.48;5.72;;;;;;;21.20;58.04;94689.59;5099872;28;20191;-65
2023/09/24 00:23:44;;;;;;;10.75;5.07;;;;;;;21.22;57.54;94686.38;5100210;28;20213;-65
2023/09/24 00:26:15;;;;;;;16.45;4.88;;;;;;;21.26;56.30;94703.94;5117715;28;20183;-65
2023/09/24 00:28:45;;;;;;;15.00;5.32;;;;;;;21.28;56.30;94691.06;5099748;28;20220;-65
2023/09/24 00:31:13;;;;;;;12.02;5.13;;;;;;;21.29;57.32;94695.44;5117383;28;20561;-65
2023/09/24 00:33:40;;;;;;;13.68;5.22;;;;;;;21.28;56.86;94705.09;5117420;28;20229;-65
2023/09/24 00:36:09;;;;;;;15.63;5.43;;;;;;;21.29;56.14;94709.47;5117403;28;20212;-65
2023/09/24 00:38:39;;;;;;;11.68;4.70;;;;;;;21.29;55.23;94705.88;5117409;28;20195;-65
2023/09/24 00:41:07;;;;;;;16.23;5.15;;;;;;;21.30;55.13;94699.03;5117341;28;20199;-65
2023/09/24 00:43:36;;;;;;;15.05;5.30;;;;;;;21.31;55.70;94700.59;5117312;28;20198;-65
2023/09/24 00:46:06;;;;;;;13.32;5.25;;;;;;;21.31;56.02;94709.03;5099547;28;20202;-65
2023/09/24 00:48:36;;;;;;;11.93;5.45;;;;;;;21.30;56.12;94702.63;5082944;28;20215;-65
2023/09/24 00:51:18;;;;;;;13.10;5.47;;;;;;;21.25;56.87;94696.75;5116305;28;20195;-65
2023/09/24 00:53:47;;;;;;;13.65;5.18;;;;;;;21.18;57.33;94702.50;5116841;28;20210;-65
2023/09/24 00:56:18;;;;;;;19.48;6.05;;;;;;;21.17;56.81;94696.09;5098989;28;20199;-65
2023/09/24 00:58:47;;;;;;;14.88;5.13;;;;;;;21.10;57.32;94693.44;5116786;28;20589;-65
2023/09/24 01:01:17;;;;;;;14.45;4.90;;;;;;;21.04;58.08;94683.94;5099060;28;20199;-65
2023/09/24 01:03:46;;;;;;;11.45;5.00;;;;;;;20.99;58.26;94690.84;5117177;28;20194;-65
2023/09/24 01:06:14;;;;;;;12.95;5.47;;;;;;;20.96;58.82;94680.47;5099077;28;20199;-65
2023/09/24 01:08:43;;;;;;;9.80;4.88;;;;;;;20.96;57.94;94688.09;5098006;28;20222;-65
2023/09/24 01:11:11;;;;;;;17.13;5.50;;;;;;;20.96;58.09;94683.28;5098601;28;20204;-65
2023/09/24 01:13:42;;;;;;;13.80;5.68;;;;;;;20.95;58.62;94680.88;5098622;28;20191;-65
2023/09/24 01:16:11;;;;;;;15.75;5.35;;;;;;;20.88;59.53;94681.84;5115802;28;20215;-65
2023/09/24 01:18:45;;;;;;;13.32;5.05;;;;;;;20.85;59.18;94683.47;5098612;28;20192;-65
2023/09/24 01:21:15;;;;;;;15.88;5.57;;;;;;;20.82;59.87;94683.53;5098708;28;20656;-65
2023/09/24 01:23:48;;;;;;;12.60;5.10;;;;;;;20.78;59.87;94680.00;5116953;28;20202;-65
2023/09/24 01:26:19;;;;;;;12.00;5.65;;;;;;;20.71;59.61;94663.34;5098595;28;20230;-65
2023/09/24 01:28:47;;;;;;;15.52;5.68;;;;;;;20.68;59.80;94665.75;5116400;28;20272;-65
2023/09/24 01:31:18;;;;;;;11.20;4.97;;;;;;;20.64;59.78;94653.81;5115884;28;20235;-65
2023/09/24 01:33:45;;;;;;;12.93;4.90;;;;;;;20.65;59.96;94660.22;5098841;28;20191;-65
2023/09/24 01:36:13;;;;;;;14.90;5.93;;;;;;;20.63;60.10;94651.47;5098706;28;20191;-65
2023/09/24 01:38:41;;;;;;;10.68;5.03;;;;;;;20.64;60.42;94653.81;5115188;28;20191;-65
2023/09/24 01:41:11;;;;;;;16.17;6.07;;;;;;;20.61;60.37;94654.69;5116277;28;20187;-65
2023/09/24 01:43:42;;;;;;;12.32;5.65;;;;;;;20.57;60.71;94656.75;5115896;28;20192;-65
2023/09/24 01:46:13;;;;;;;14.75;5.75;;;;;;;20.46;61.03;94650.53;5098783;28;20198;-65
2023/09/24 01:48:40;;;;;;;15.10;5.63;;;;;;;20.37;60.79;94656.69;5098368;28;20287;-65
2023/09/24 01:51:10;;;;;;;15.52;5.80;;;;;;;20.34;61.28;94653.94;5098108;28;20206;-65
2023/09/24 01:53:39;;;;;;;13.95;6.00;;;;;;;20.28;61.75;94650.81;5098738;28;20260;-65
2023/09/24 01:56:07;;;;;;;16.48;5.78;;;;;;;20.30;61.45;94648.41;5114759;28;20204;-65
2023/09/24 01:58:37;;;;;;;15.20;5.60;;;;;;;20.29;61.68;94651.63;5098107;28;20731;-65
2023/09/24 02:01:06;;;;;;;15.57;6.03;;;;;;;20.25;61.88;94645.28;5115844;28;20211;-65
2023/09/24 02:03:35;;;;;;;13.85;5.10;;;;;;;20.23;62.15;94648.53;5115590;28;20543;-65
2023/09/24 02:06:04;;;;;;;14.13;5.78;;;;;;;20.26;62.50;94644.88;5116020;28;20202;-65
2023/09/24 02:08:31;;;;;;;10.45;5.10;;;;;;;20.22;62.07;94646.13;5114579;28;20207;-65
2023/09/24 02:10:59;;;;;;;14.40;5.63;;;;;;;20.18;62.22;94649.78;5098055;28;20196;-65
2023/09/24 02:13:29;;;;;;;13.13;5.78;;;;;;;20.17;62.34;94651.00;5115897;28;20274;-65
2023/09/24 02:16:00;;;;;;;12.60;5.70;;;;;;;20.13;62.71;94660.69;5115512;28;20264;-65
2023/09/24 02:18:32;;;;;;;13.57;5.40;;;;;;;20.03;63.04;94654.03;5115732;28;20199;-65
2023/09/24 02:21:00;;;;;;;13.35;5.07;;;;;;;19.99;63.23;94663.72;5115433;28;20196;-65
2023/09/24 02:23:29;;;;;;;17.15;6.38;;;;;;;19.97;63.31;94661.31;5097361;28;20207;-65
2023/09/24 02:25:57;;;;;;;13.50;5.65;;;;;;;19.94;63.08;94657.38;5115426;28;20270;-65
2023/09/24 02:28:25;;;;;;;17.63;5.32;;;;;;;19.94;63.12;94657.38;5115541;28;20198;-65
2023/09/24 02:30:53;;;;;;;17.45;6.20;;;;;;;19.89;63.14;94665.44;5115630;28;20250;-65
2023/09/24 02:33:23;;;;;;;11.40;5.60;;;;;;;19.83;63.76;94647.56;5114596;28;20200;-65
2023/09/24 02:35:51;;;;;;;15.50;5.50;;;;;;;19.82;63.76;94652.34;5097636;28;20195;-65
2023/09/24 02:38:19;;;;;;;14.02;5.30;;;;;;;19.80;63.54;94659.59;5115570;28;20215;-65
2023/09/24 02:40:48;;;;;;;16.48;5.97;;;;;;;19.76;63.74;94670.06;5115544;28;20179;-65
2023/09/24 02:43:16;;;;;;;13.13;5.10;;;;;;;19.75;64.20;94663.66;5097552;28;20287;-65
2023/09/24 02:45:47;;;;;;;17.77;6.00;;;;;;;19.76;64.73;94667.25;5115670;28;20202;-65
2023/09/24 02:48:17;;;;;;;11.98;5.70;;;;;;;19.80;64.17;94659.59;5115437;28;20206;-65
2023/09/24 02:50:51;;;;;;;16.52;5.72;;;;;;;19.74;64.36;94655.69;5115437;28;20211;-65
2023/09/24 02:53:19;;;;;;;16.70;5.93;;;;;;;19.73;64.70;94662.50;5097147;28;20206;-65
2023/09/24 02:55:47;;;;;;;14.52;5.43;;;;;;;19.68;64.70;94652.56;5114859;28;20695;-65
2023/09/24 02:58:19;;;;;;;14.88;6.38;;;;;;;19.62;64.66;94662.63;5097550;28;20202;-65
2023/09/24 03:00:47;;;;;;;15.70;5.50;;;;;;;19.61;64.75;94661.84;5097456;28;20195;-65
2023/09/24 03:03:15;;;;;;;12.45;5.60;;;;;;;19.57;65.12;94677.88;5115250;28;20192;-65
2023/09/24 03:05:43;;;;;;;13.57;4.97;;;;;;;19.55;65.25;94663.50;5115490;28;20188;-65
2023/09/24 03:08:15;;;;;;;14.20;5.60;;;;;;;19.49;65.15;94665.19;5115369;28;20286;-65
2023/09/24 03:10:43;;;;;;;13.48;6.63;;;;;;;19.45;65.52;94670.03;5097438;28;20216;-65
2023/09/24 03:13:12;;;;;;;15.80;5.70;;;;;;;19.44;65.40;94666.47;5114914;28;20195;-65
2023/09/24 03:15:39;;;;;;;12.65;5.43;;;;;;;19.45;65.49;94672.84;5097938;28;20219;-65
2023/09/24 03:18:06;;;;;;;10.82;5.40;;;;;;;19.47;65.40;94670.44;5097112;28;20202;-65
2023/09/24 03:20:34;;;;;;;13.90;5.20;;;;;;;19.49;65.59;94668.78;5097755;28;20207;-65
2023/09/24 03:23:08;;;;;;;15.55;5.78;;;;;;;19.48;65.07;94672.00;5114893;28;20180;-65
2023/09/24 03:25:39;;;;;;;11.65;5.18;;;;;;;19.46;64.69;94671.63;5115044;28;20480;-65
2023/09/24 03:28:08;;;;;;;15.15;6.20;;;;;;;19.51;64.68;94673.97;5115145;28;20212;-65
2023/09/24 03:30:36;;;;;;;12.65;5.65;;;;;;;19.54;65.03;94675.94;5093760;28;20228;-65
2023/09/24 03:33:04;;;;;;;12.68;5.80;;;;;;;19.51;65.37;94678.78;5097922;28;20206;-65
2023/09/24 03:35:32;;;;;;;13.35;5.60;;;;;;;19.40;64.89;94676.13;5098386;28;20196;-65
2023/09/24 03:38:01;;;;;;;14.43;5.70;;;;;;;19.37;65.41;94682.53;5098890;28;20206;-65
2023/09/24 03:40:29;;;;;;;12.27;5.43;;;;;;;19.35;65.22;94668.97;5097196;28;20206;-65
2023/09/24 03:43:02;;;;;;;14.95;5.70;;;;;;;19.34;65.52;94672.19;5097887;28;20531;-65
2023/09/24 03:45:29;;;;;;;13.55;5.72;;;;;;;19.33;65.62;94676.22;5097216;28;20196;-65
2023/09/24 03:47:57;;;;;;;12.43;5.35;;;;;;;19.30;65.37;94679.84;5097795;28;20192;-65
2023/09/24 03:50:26;;;;;;;13.73;5.70;;;;;;;19.31;65.38;94685.00;5098025;28;20204;-65
2023/09/24 03:52:57;;;;;;;11.05;5.82;;;;;;;19.28;65.52;94693.44;5097955;28;20317;-65
2023/09/24 03:55:27;;;;;;;12.77;5.40;;;;;;;19.21;65.51;94681.13;5097078;28;20207;-65
2023/09/24 03:57:55;;;;;;;12.35;5.88;;;;;;;19.19;65.35;94671.56;5097996;28;20300;-65
2023/09/24 04:00:25;;;;;;;11.27;5.20;;;;;;;19.18;65.88;94681.19;5096944;28;20192;-65
2023/09/24 04:02:55;;;;;;;13.30;6.03;;;;;;;19.14;65.72;94695.19;5097852;28;20196;-65
2023/09/24 04:05:24;;;;;;;15.07;6.47;;;;;;;19.13;65.99;94693.59;5097741;28;20287;-65
2023/09/24 04:07:54;;;;;;;12.93;5.60;;;;;;;19.15;66.27;94699.56;5097740;28;20244;-65
2023/09/24 04:10:23;;;;;;;11.13;5.55;;;;;;;19.20;65.47;94701.09;5097691;28;20207;-65
2023/09/24 04:12:52;;;;;;;10.40;5.47;;;;;;;19.23;64.43;94717.84;5097432;28;20212;-65
2023/09/24 04:15:21;;;;;;;17.02;6.65;;;;;;;19.28;63.78;94721.38;5096620;28;20197;-65
2023/09/24 04:17:52;;;;;;;13.32;5.97;;;;;;;19.36;62.99;94725.69;5097486;28;20185;-65
2023/09/24 04:20:24;;;;;;;12.73;6.30;;;;;;;19.40;62.40;94738.41;5096614;28;20228;-65
2023/09/24 04:22:52;;;;;;;12.98;5.40;;;;;;;19.44;62.13;94741.97;5096561;28;20192;-65
2023/09/24 04:25:21;;;;;;;12.88;5.78;;;;;;;19.45;62.20;94756.75;5097397;28;20189;-65
2023/09/24 04:27:50;;;;;;;14.90;5.53;;;;;;;19.46;62.02;94753.53;5097368;28;20213;-65
2023/09/24 04:30:17;;;;;;;10.35;5.35;;;;;;;19.49;62.05;94749.09;5098239;28;20655;-65
2023/09/24 04:32:48;;;;;;;12.30;5.72;;;;;;;19.50;62.47;94756.28;5113332;28;20235;-65
2023/09/24 04:35:20;;;;;;;16.27;6.03;;;;;;;19.53;61.70;94749.84;5097066;28;20253;-65
2023/09/24 04:37:50;;;;;;;13.00;5.95;;;;;;;19.56;62.02;94757.41;5095892;28;20654;-65
2023/09/24 04:40:18;;;;;;;11.40;5.60;;;;;;;19.58;62.62;94748.59;5097244;28;20173;-65
2023/09/24 04:42:47;;;;;;;13.25;6.05;;;;;;;19.58;62.93;94754.19;5095599;28;20195;-65
2023/09/24 04:45:18;;;;;;;16.95;6.15;;;;;;;19.59;62.23;94752.97;5096597;28;20196;-65
2023/09/24 04:47:48;;;;;;;14.57;5.85;;;;;;;19.59;61.96;94756.56;5095758;28;20671;-65
2023/09/24 04:50:23;;;;;;;12.18;6.10;;;;;;;19.58;62.54;94762.59;5096819;28;20208;-65
2023/09/24 04:52:54;;;;;;;15.70;6.78;;;;;;;19.52;63.12;94762.25;5096553;28;20290;-65
2023/09/24 04:55:22;;;;;;;13.98;5.78;;;;;;;19.49;62.99;94755.47;5095792;28;20212;-65
2023/09/24 04:57:50;;;;;;;10.80;5.95;;;;;;;19.46;63.81;94756.34;5096733;28;20184;-65
2023/09/24 05:00:19;;;;;;;13.63;6.20;;;;;;;19.42;64.02;94761.16;5096209;28;20200;-65
2023/09/24 05:02:47;;;;;;;15.63;6.47;;;;;;;19.40;63.96;94755.19;5096640;28;20219;-65
2023/09/24 05:05:17;;;;;;;11.40;6.45;;;;;;;19.36;64.53;94751.66;5095663;28;20643;-65
2023/09/24 05:07:48;;;;;;;14.07;6.47;;;;;;;19.34;64.92;94750.47;5096367;28;20191;-65
2023/09/24 05:10:18;;;;;;;13.98;6.60;;;;;;;19.34;64.78;94745.69;5095512;28;20228;-65
2023/09/24 05:12:48;;;;;;;13.73;6.65;;;;;;;19.31;64.82;94754.91;5095496;28;20208;-65
2023/09/24 05:15:19;;;;;;;15.07;7.25;;;;;;;19.31;65.23;94745.72;5096302;28;20210;-65
2023/09/24 05:17:47;;;;;;;15.13;6.90;;;;;;;19.31;65.11;94752.09;5095338;28;20204;-65
2023/09/24 05:20:17;;;;;;;17.65;8.05;;;;;;;19.35;65.07;94764.03;5096417;28;20257;-65
2023/09/24 05:22:48;;;;;;;17.88;7.65;;;;;;;19.38;65.22;94743.63;5095553;28;20287;-65
2023/09/24 05:25:15;;;;;;;16.58;7.30;;;;;;;19.39;65.81;94764.81;5095220;28;20204;-65
2023/09/24 05:27:42;;;;;;;12.82;6.78;;;;;;;19.42;65.53;94755.56;5095488;28;20199;-65
2023/09/24 05:30:11;;;;;;;17.30;7.35;;;;;;;19.47;65.68;94768.31;5100687;28;20219;-65
2023/09/24 05:32:38;;;;;;;14.98;6.53;;;;;;;19.49;65.40;94771.47;5098554;28;20196;-65
2023/09/24 05:35:06;;;;;;;13.75;7.18;;;;;;;19.56;65.76;94770.59;5116530;28;20207;-65
2023/09/24 05:37:36;;;;;;;17.02;7.35;;;;;;;19.58;65.22;94777.38;5099226;28;20191;-65
2023/09/24 05:40:05;;;;;;;14.35;6.88;;;;;;;19.60;65.75;94768.53;5116505;28;20184;-65
2023/09/24 05:42:33;;;;;;;13.88;6.95;;;;;;;19.60;66.23;94772.13;5098653;28;20200;-65
2023/09/24 05:45:02;;;;;;;15.45;6.43;;;;;;;19.64;66.45;94772.91;5098432;28;20202;-65
2023/09/24 05:47:31;;;;;;;17.98;7.53;;;;;;;19.66;66.39;94773.28;5115901;28;20529;-65
2023/09/24 05:49:59;;;;;;;10.32;6.43;;;;;;;19.67;66.37;94768.47;5098755;28;20220;-65
2023/09/24 05:52:30;;;;;;;14.05;6.68;;;;;;;19.69;66.55;94778.06;5098305;28;20207;-65
2023/09/24 05:55:00;;;;;;;14.30;6.75;;;;;;;19.74;66.82;94773.19;5097724;28;20290;-65
2023/09/24 05:57:28;;;;;;;13.20;6.90;;;;;;;19.80;66.30;94777.13;5098133;28;20540;-65
2023/09/24 05:59:57;;;;;;;14.57;6.63;;;;;;;19.84;65.56;94780.66;5116216;28;20195;-65
2023/09/24 06:02:25;;;;;;;14.70;6.60;;;;;;;19.88;65.81;94775.81;5116088;28;20211;-65
2023/09/24 06:04:55;;;;;;;14.77;6.07;;;;;;;19.92;65.18;94777.34;5098130;28;20191;-65
2023/09/24 06:07:24;;;;;;;22.55;8.20;;;;;;;19.98;64.92;94774.09;5115833;28;20184;-65
2023/09/24 06:09:53;;;;;;;15.35;8.20;;;;;;;20.04;65.15;94784.38;5097940;28;20179;-65
2023/09/24 06:12:24;;;;;;;17.05;8.55;;;;;;;20.10;64.60;94777.09;5098295;28;20203;-65
2023/09/24 06:14:52;;;;;;;13.98;7.55;;;;;;;20.16;65.19;94781.03;5115817;28;20199;-65
2023/09/24 06:17:20;;;;;;;11.55;7.35;;;;;;;20.22;65.09;94774.94;5097580;28;20200;-65
2023/09/24 06:19:48;;;;;;;11.07;5.68;;;;;;;20.28;64.09;94767.66;5115470;28;20194;-65
2023/09/24 06:22:18;;;;;;;12.70;6.60;;;;;;;20.34;64.08;94771.56;5097956;28;20203;-65
2023/09/24 06:24:46;;;;;;;11.38;5.82;;;;;;;20.41;63.70;94775.06;5115633;28;20615;-65
2023/09/24 06:27:16;;;;;;;15.60;6.20;;;;;;;20.48;63.27;94767.72;5115611;28;20196;-65
2023/09/24 06:29:46;;;;;;;12.88;6.80;;;;;;;20.51;62.93;94769.72;5097371;28;20191;-65
2023/09/24 06:32:14;;;;;;;14.15;7.65;;;;;;;20.55;63.02;94768.47;5115375;28;20184;-65
2023/09/24 06:34:41;;;;;;;15.02;8.23;;;;;;;20.60;62.74;94772.78;5115592;28;20192;-65
2023/09/24 06:37:10;;;;;;;13.52;7.28;;;;;;;20.64;62.71;94768.72;5097408;28;20203;-65
2023/09/24 06:39:38;;;;;;;14.77;8.55;;;;;;;20.67;62.60;94778.28;5115583;28;20219;-65
2023/09/24 06:42:06;;;;;;;14.05;7.65;;;;;;;20.72;62.51;94774.19;5115770;28;20191;-65
2023/09/24 06:44:34;;;;;;;13.02;7.15;;;;;;;20.75;62.40;94779.75;5098102;28;20200;-65
2023/09/24 06:47:05;;;;;;;14.02;6.80;;;;;;;20.78;62.00;94778.91;5115540;28;20195;-65
2023/09/24 06:49:33;;;;;;;9.23;5.95;;;;;;;20.82;62.11;94779.63;5114690;28;20373;-65
2023/09/24 06:52:01;;;;;;;9.77;5.43;;;;;;;20.86;62.12;94777.53;5097780;28;20207;-65
2023/09/24 06:54:29;;;;;;;11.93;5.93;;;;;;;20.92;62.54;94775.06;5098201;28;20203;-65
2023/09/24 06:56:57;;;;;;;8.38;5.50;;;;;;;20.96;61.95;94775.78;5097607;28;20530;-65
2023/09/24 06:59:26;;;;;;;10.55;5.55;;;;;;;21.01;61.96;94777.28;5097574;28;20497;-65
2023/09/24 07:01:54;;;;;;;14.45;6.03;;;;;;;21.06;61.14;94779.59;5115391;28;20276;-65
2023/09/24 07:04:24;;;;;;;12.55;5.88;;;;;;;21.10;60.79;94771.94;5115417;28;20195;-65
2023/09/24 07:07:15;;;;;;;10.25;5.70;;;;;;;21.12;60.84;94769.47;5117504;28;20196;-65
2023/09/24 07:09:41;;;;;;;9.75;5.63;;;;;;;21.19;60.74;94774.97;5119163;28;20210;-65
2023/09/24 07:12:09;;;;;;;12.65;5.55;;;;;;;21.23;60.89;94769.28;5100954;28;20224;-65
2023/09/24 07:14:36;;;;;;;11.45;5.95;;;;;;;21.30;61.16;94769.16;5101641;28;20203;-65
2023/09/24 07:17:03;;;;;;;11.05;5.68;;;;;;;21.40;60.85;94771.00;5119091;28;20260;-65
2023/09/24 07:19:34;;;;;;;12.07;5.93;;;;;;;21.51;60.43;94777.19;5101626;28;20513;-65
2023/09/24 07:22:03;;;;;;;16.25;5.63;;;;;;;21.63;59.94;94773.72;5119126;28;20184;-65
2023/09/24 07:24:32;;;;;;;11.10;5.70;;;;;;;21.73;59.64;94783.16;5118905;28;20172;-65
2023/09/24 07:27:02;;;;;;;13.02;6.20;;;;;;;21.83;59.44;94784.19;5118950;28;20191;-65
2023/09/24 07:29:31;;;;;;;13.95;6.07;;;;;;;21.84;59.01;94782.94;5100743;28;20238;-65
2023/09/24 07:32:00;;;;;;;14.02;5.97;;;;;;;21.91;58.90;94782.78;5097125;28;20228;-65
2023/09/24 07:34:30;;;;;;;9.77;5.78;;;;;;;21.96;59.22;94776.66;5097447;28;20197;-65
2023/09/24 07:37:04;;;;;;;11.60;5.72;;;;;;;22.11;58.70;94777.13;5097485;28;20189;-65
2023/09/24 07:39:33;;;;;;;12.90;6.00;;;;;;;22.24;58.30;94771.69;5114658;28;20192;-65
2023/09/24 07:42:03;;;;;;;10.95;6.60;;;;;;;22.31;58.25;94774.31;5097191;28;20197;-65
2023/09/24 07:44:31;;;;;;;12.88;5.70;;;;;;;22.38;57.61;94767.75;5096954;28;20196;-65
2023/09/24 07:47:00;;;;;;;10.68;6.47;;;;;;;22.42;57.97;94772.06;5097482;28;20199;-65
2023/09/24 07:49:30;;;;;;;13.75;6.15;;;;;;;22.58;57.43;94780.50;5096652;28;20200;-65
2023/09/24 07:52:00;;;;;;;11.43;6.38;;;;;;;22.70;57.01;94767.00;5114027;28;20592;-65
2023/09/24 07:54:30;;;;;;;12.13;6.70;;;;;;;22.81;57.00;94761.91;5096908;28;20322;-65
2023/09/24 07:56:58;;;;;;;10.63;6.00;;;;;;;22.94;56.55;94759.97;5097144;28;20192;-65
2023/09/24 07:59:27;;;;;;;16.05;7.03;;;;;;;22.97;56.42;94763.94;5097673;28;20185;-65
2023/09/24 08:01:55;;;;;;;12.82;6.47;;;;;;;23.04;56.81;94761.72;5096760;28;20192;-65
2023/09/24 08:04:23;;;;;;;10.32;5.72;;;;;;;23.13;56.32;94754.66;5097202;28;20197;-65
2023/09/24 08:06:51;;;;;;;11.80;6.57;;;;;;;23.21;56.24;94751.25;5097771;28;20253;-65
2023/09/24 08:09:20;;;;;;;10.13;6.45;;;;;;;23.23;55.94;94760.00;5096678;28;20224;-65
2023/09/24 08:11:49;;;;;;;14.02;6.13;;;;;;;23.21;56.07;94756.88;5096864;28;20208;-65
2023/09/24 08:14:19;;;;;;;12.75;6.43;;;;;;;23.15;55.54;94755.81;5096943;28;20246;-65
2023/09/24 08:16:47;;;;;;;12.35;6.75;;;;;;;23.10;56.03;94749.94;5096609;28;20204;-65
2023/09/24 08:19:14;;;;;;;13.68;6.50;;;;;;;23.05;56.17;94745.63;5096257;28;20506;-65
2023/09/24 08:21:42;;;;;;;15.98;6.63;;;;;;;23.01;56.84;94742.91;5097421;28;20185;-65
2023/09/24 08:24:10;;;;;;;11.77;5.95;;;;;;;23.00;57.02;94729.31;5096508;28;20200;-65
2023/09/24 08:26:39;;;;;;;9.98;6.10;;;;;;;22.99;56.95;94736.97;5096596;28;20192;-65
2023/09/24 08:29:08;;;;;;;11.45;6.57;;;;;;;22.97;56.83;94733.78;5096195;28;20203;-65
2023/09/24 08:31:36;;;;;;;11.77;6.82;;;;;;;22.96;56.62;94735.03;5109686;28;20240;-65
2023/09/24 08:34:04;;;;;;;11.52;6.43;;;;;;;22.96;56.91;94735.03;5096985;28;20196;-65
2023/09/24 08:36:32;;;;;;;13.48;7.00;;;;;;;22.97;57.25;94741.44;5095946;28;20200;-65
2023/09/24 08:39:04;;;;;;;17.42;7.63;;;;;;;22.97;57.68;94730.97;5096172;28;20203;-65
2023/09/24 08:41:31;;;;;;;13.45;7.03;;;;;;;22.97;57.41;94728.16;5096461;28;20203;-65
2023/09/24 08:44:05;;;;;;;15.13;6.68;;;;;;;22.97;56.47;94725.34;5096101;28;20226;-65
2023/09/24 08:46:33;;;;;;;12.77;6.45;;;;;;;22.99;56.34;94722.91;5097159;28;20253;-65
2023/09/24 08:49:03;;;;;;;10.60;6.70;;;;;;;23.04;56.72;94721.56;5096581;28;20612;-65
2023/09/24 08:51:33;;;;;;;13.00;6.68;;;;;;;23.05;56.31;94717.50;5112652;28;20215;-65
2023/09/24 08:54:02;;;;;;;17.55;6.82;;;;;;;23.09;56.67;94721.00;5096825;28;20257;-65
2023/09/24 08:56:29;;;;;;;13.68;5.90;;;;;;;23.13;56.25;94720.91;5096574;28;20185;-65
2023/09/24 08:58:56;;;;;;;10.80;6.57;;;;;;;23.15;56.58;94713.63;5095824;28;20222;-65
2023/09/24 09:01:24;;;;;;;14.07;6.90;;;;;;;23.18;57.20;94712.75;5078972;28;20200;-65
2023/09/24 09:03:53;;;;;;;14.60;6.43;;;;;;;23.29;55.65;94709.63;5096860;28;20228;-65
2023/09/24 09:06:31;;;;;;;11.82;6.38;;;;;;;23.37;55.64;94719.44;5095840;28;20203;-65
2023/09/24 09:09:00;;;;;;;14.30;6.25;;;;;;;23.42;54.97;94721.72;5096584;28;20176;-65
2023/09/24 09:11:39;;;;;;;12.52;6.28;;;;;;;23.49;54.69;94715.91;5095583;28;20326;-65
2023/09/24 09:14:07;;;;;;;12.98;5.80;;;;;;;23.56;54.03;94714.88;5096206;28;20361;-65
2023/09/24 09:16:55;;;;;;;11.50;5.38;;;;;;;23.62;53.44;94709.50;5096492;28;20203;-65
2023/09/24 09:19:23;;;;;;;10.98;5.57;;;;;;;23.61;53.26;94713.56;5095131;28;20216;-65
2023/09/24 09:21:52;;;;;;;15.88;6.70;;;;;;;23.64;53.46;94721.91;5096343;28;20177;-65
2023/09/24 09:24:25;;;;;;;8.73;5.47;;;;;;;23.67;53.81;94723.06;5095443;28;20200;-65
2023/09/24 09:26:59;;;;;;;13.38;6.28;;;;;;;23.75;53.84;94713.19;5095258;28;20283;-65
2023/09/24 09:29:30;;;;;;;12.38;6.25;;;;;;;23.81;53.27;94708.56;5094515;28;20195;-65
2023/09/24 09:31:59;;;;;;;12.60;5.95;;;;;;;23.88;53.04;94713.97;5094731;28;20762;-65
2023/09/24 09:34:31;;;;;;;14.93;6.50;;;;;;;23.91;52.46;94717.94;5095555;28;20513;-65
2023/09/24 09:37:16;;;;;;;15.60;6.43;;;;;;;23.95;53.79;94712.97;5096246;28;20210;-65
2023/09/24 09:39:46;;;;;;;13.45;6.30;;;;;;;24.00;52.83;94716.03;5095552;28;20196;-65
2023/09/24 09:42:21;;;;;;;10.18;6.30;;;;;;;24.08;53.34;94719.44;5112124;28;20200;-65
2023/09/24 09:44:52;;;;;;;14.00;6.50;;;;;;;24.21;52.03;94713.78;5095251;28;20199;-65
2023/09/24 09:47:23;;;;;;;14.25;6.75;;;;;;;24.31;52.26;94712.66;5094967;28;20242;-65
2023/09/24 09:49:57;;;;;;;14.52;6.65;;;;;;;24.48;52.17;94719.00;5095516;28;20206;-65
2023/09/24 09:52:34;;;;;;;13.10;5.68;;;;;;;24.54;51.31;94714.38;5094758;28;20219;-65
2023/09/24 09:55:07;;;;;;;9.52;5.20;;;;;;;24.56;50.99;94720.34;5094719;28;20622;-65
2023/09/24 09:57:36;;;;;;;11.60;5.80;;;;;;;24.60;51.25;94715.38;5094696;28;20291;-65
2023/09/24 10:00:10;;;;;;;8.60;5.40;;;;;;;24.61;50.45;94721.81;5094656;28;20192;-65
2023/09/24 10:02:39;;;;;;;13.15;6.13;;;;;;;24.63;51.45;94717.31;5095667;28;20615;-65
2023/09/24 10:05:09;;;;;;;9.50;5.57;;;;;;;24.68;51.20;94715.94;5095247;28;20196;-65
2023/09/24 10:07:38;;;;;;;10.05;6.28;;;;;;;24.74;51.54;94709.28;5112223;28;20200;-65
2023/09/24 10:10:42;;;;;;;10.07;6.10;;;;;;;24.77;50.41;94706.81;5095127;28;20200;-65
2023/09/24 10:13:44;;;;;;;12.68;5.22;;;;;;;24.74;50.58;94709.28;5094165;28;20216;-65
2023/09/24 10:16:38;;;;;;;9.57;5.40;;;;;;;24.71;50.08;94706.56;5095413;28;20203;-65
2023/09/24 10:19:08;;;;;;;9.88;5.30;;;;;;;24.65;50.56;94702.75;5080244;28;20207;-65
2023/09/24 10:21:37;;;;;;;11.93;5.63;;;;;;;24.68;50.18;94704.66;5095769;28;20200;-65
2023/09/24 10:24:39;;;;;;;10.75;6.00;;;;;;;24.66;50.79;94698.69;5094141;28;20200;-65
2023/09/24 10:27:08;;;;;;;12.50;5.95;;;;;;;24.68;50.45;94704.66;5093342;28;20276;-65
2023/09/24 10:30:13;;;;;;;11.48;5.50;;;;;;;24.64;50.92;94693.50;5095111;28;20271;-65
2023/09/24 10:32:51;;;;;;;14.25;5.88;;;;;;;24.64;50.15;94693.50;5094009;28;20211;-65
2023/09/24 10:35:20;;;;;;;11.65;5.65;;;;;;;24.61;50.23;94694.41;5094392;28;20200;-65
2023/09/24 10:38:01;;;;;;;15.50;5.95;;;;;;;24.60;50.39;94698.47;5095198;28;20235;-65
2023/09/24 10:40:30;;;;;;;12.38;5.53;;;;;;;24.58;51.45;94694.50;5094972;28;20193;-65
2023/09/24 10:43:18;;;;;;;11.00;5.60;;;;;;;24.60;50.25;94689.22;5098644;28;20206;-65
2023/09/24 10:45:47;;;;;;;15.23;5.85;;;;;;;24.64;49.89;94687.84;5098347;28;20208;-65
2023/09/24 10:48:16;;;;;;;10.65;6.00;;;;;;;24.69;49.95;94684.47;5099489;28;20204;-65
2023/09/24 10:50:46;;;;;;;12.60;6.00;;;;;;;24.68;50.47;94682.09;5098472;28;20192;-65
2023/09/24 10:53:19;;;;;;;17.15;6.55;;;;;;;24.72;49.62;94683.53;5098309;28;20220;-65
2023/09/24 10:55:47;;;;;;;12.50;6.18;;;;;;;24.76;49.56;94680.59;5099548;28;20195;-65
2023/09/24 10:58:16;;;;;;;11.40;5.88;;;;;;;24.78;49.42;94677.34;5099243;28;20211;-65
2023/09/24 11:00:53;;;;;;;12.27;6.07;;;;;;;24.80;49.72;94675.66;5098376;28;20199;-65
2023/09/24 11:03:21;;;;;;;11.60;5.53;;;;;;;24.84;49.07;94679.16;5097904;28;20195;-65
2023/09/24 11:05:52;;;;;;;14.15;5.82;;;;;;;24.86;48.75;94670.22;5115115;28;20220;-65
2023/09/24 11:08:28;;;;;;;10.48;5.53;;;;;;;24.88;49.17;94673.38;5097724;28;20195;-65
2023/09/24 11:10:56;;;;;;;8.90;5.55;;;;;;;24.90;49.48;94656.78;5097774;28;20200;-65
2023/09/24 11:13:25;;;;;;;8.35;5.30;;;;;;;24.94;48.65;94660.25;5098522;28;20196;-65
2023/09/24 11:15:54;;;;;;;11.35;5.80;;;;;;;24.95;49.52;94659.03;5098911;28;20185;-65
2023/09/24 11:18:26;;;;;;;12.98;6.43;;;;;;;24.97;49.27;94662.94;5097964;28;20204;-65
2023/09/24 11:20:55;;;;;;;12.07;6.07;;;;;;;25.02;48.76;94655.97;5114686;28;20208;-65
2023/09/24 11:23:23;;;;;;;10.90;6.18;;;;;;;25.01;49.17;94674.09;5097777;28;20188;-65
2023/09/24 11:25:52;;;;;;;12.35;6.18;;;;;;;25.00;49.53;94669.72;5098264;28;20207;-65
2023/09/24 11:28:31;;;;;;;11.18;5.95;;;;;;;25.06;49.69;94672.75;5097500;28;20205;-65
2023/09/24 11:30:59;;;;;;;11.23;6.25;;;;;;;25.09;49.53;94672.63;5097014;28;20236;-65
2023/09/24 11:33:27;;;;;;;12.23;5.78;;;;;;;25.14;49.60;94683.34;5097137;28;20226;-65
2023/09/24 11:35:57;;;;;;;11.52;5.72;;;;;;;25.17;49.89;94687.31;5098043;28;20205;-65
2023/09/24 11:38:31;;;;;;;10.32;6.50;;;;;;;25.16;49.99;94694.19;5097353;28;20192;-65
2023/09/24 11:41:10;;;;;;;12.50;5.38;;;;;;;25.18;48.86;94691.69;5097425;28;20204;-65